Time;durP1;ratioP1;P1;durP2;ratioP2;P2;SDS_P1;SDS_P2;PMS_P1;PMS_P2;Temp;Humidity;BMP_temperature;BMP_pressure;BME280_temperature;BME280_humidity;BME280_pressure;Samples;Min_cycle;Max_cycle;Signal;HPM_P1;HPM_P2
2020/12/03 00:01:42;;;;;;;78.57;40.53;;;-1.60;99.90;;;;;;5030824;28;20410;-76
2020/12/03 00:04:09;;;;;;;78.43;39.43;;;-1.60;99.90;;;;;;5032235;28;20178;-75
2020/12/03 00:06:57;;;;;;;84.37;40.83;;;-1.60;99.90;;;;;;5032077;28;20183;-75
2020/12/03 00:09:23;;;;;;;76.10;37.63;;;-1.60;99.90;;;;;;5031910;28;20821;-75
2020/12/03 00:11:53;;;;;;;69.43;39.77;;;-1.60;99.90;;;;;;5032058;28;20450;-75
2020/12/03 00:14:19;;;;;;;80.97;43.37;;;-1.60;99.90;;;;;;5031863;28;20200;-74
2020/12/03 00:16:47;;;;;;;89.13;45.17;;;-1.60;99.90;;;;;;5031958;28;20442;-74
2020/12/03 00:19:13;;;;;;;81.63;38.90;;;-1.50;99.90;;;;;;5031900;28;20838;-76
2020/12/03 00:22:00;;;;;;;69.40;38.73;;;-1.50;99.90;;;;;;5032073;28;20417;-76
2020/12/03 00:24:29;;;;;;;68.40;37.00;;;-1.50;99.90;;;;;;5031913;28;20414;-76
2020/12/03 00:26:55;;;;;;;83.00;41.17;;;-1.50;99.90;;;;;;5031754;28;20414;-74
2020/12/03 00:29:21;;;;;;;79.30;42.53;;;-1.50;99.90;;;;;;5031923;28;20449;-75
2020/12/03 00:31:48;;;;;;;81.83;44.37;;;-1.50;99.90;;;;;;5031683;28;20191;-75
2020/12/03 00:34:14;;;;;;;78.40;38.30;;;-1.50;99.90;;;;;;5031333;28;20635;-75
2020/12/03 00:36:40;;;;;;;75.90;39.30;;;-1.50;99.90;;;;;;5031715;28;20544;-75
2020/12/03 00:39:10;;;;;;;84.63;42.03;;;-1.50;99.90;;;;;;5032067;28;20453;-76
2020/12/03 00:41:35;;;;;;;83.30;39.37;;;-1.50;99.90;;;;;;5032603;28;20479;-76
2020/12/03 00:44:01;;;;;;;84.83;40.57;;;-1.50;99.90;;;;;;5030571;28;21071;-75
2020/12/03 00:46:28;;;;;;;86.93;40.70;;;-1.50;99.90;;;;;;5031597;28;20175;-75
2020/12/03 00:48:54;;;;;;;75.30;38.83;;;-1.50;99.90;;;;;;5031673;28;20275;-74
2020/12/03 00:51:19;;;;;;;80.27;39.23;;;-1.50;99.90;;;;;;5031609;28;20899;-75
2020/12/03 00:53:45;;;;;;;70.90;37.73;;;-1.40;99.90;;;;;;5032018;28;20179;-74
2020/12/03 00:56:10;;;;;;;87.30;40.13;;;-1.50;99.90;;;;;;5031521;28;20182;-76
2020/12/03 00:58:35;;;;;;;67.03;39.17;;;-1.50;99.90;;;;;;5031439;28;20191;-76
2020/12/03 01:01:01;;;;;;;76.93;41.23;;;-1.50;99.90;;;;;;5031841;28;20172;-77
2020/12/03 01:03:27;;;;;;;79.13;40.43;;;-1.40;99.90;;;;;;5032337;28;20555;-76
2020/12/03 01:05:52;;;;;;;87.43;45.87;;;-1.50;99.90;;;;;;5032453;28;20263;-76
2020/12/03 01:08:18;;;;;;;77.23;43.37;;;-1.40;99.90;;;;;;5031278;28;20203;-76
2020/12/03 01:10:43;;;;;;;84.13;39.77;;;-1.40;99.90;;;;;;5031426;28;20199;-76
2020/12/03 01:13:09;;;;;;;76.83;39.80;;;-1.40;99.90;;;;;;5031453;28;20159;-76
2020/12/03 01:15:34;;;;;;;79.33;42.50;;;-1.40;99.90;;;;;;5031556;28;20170;-76
2020/12/03 01:18:00;;;;;;;74.40;40.77;;;-1.40;99.90;;;;;;5031317;28;20729;-74
2020/12/03 01:20:28;;;;;;;74.60;40.77;;;-1.40;99.90;;;;;;5031418;28;20171;-75
2020/12/03 01:22:54;;;;;;;66.83;38.70;;;-1.40;99.90;;;;;;5031249;28;20170;-75
2020/12/03 01:25:22;;;;;;;79.07;39.83;;;-1.40;99.90;;;;;;5031651;28;20402;-75
2020/12/03 01:27:48;;;;;;;79.47;39.87;;;-1.50;99.90;;;;;;5034239;28;20168;-76
2020/12/03 01:30:15;;;;;;;87.63;38.07;;;-1.50;99.90;;;;;;5033234;28;20407;-76
2020/12/03 01:32:41;;;;;;;77.17;39.67;;;-1.60;99.90;;;;;;5031447;28;20398;-76
2020/12/03 01:35:08;;;;;;;73.23;37.67;;;-1.60;99.90;;;;;;5031447;28;20407;-76
2020/12/03 01:37:37;;;;;;;74.47;41.30;;;-1.60;99.90;;;;;;5031938;28;20168;-77
2020/12/03 01:40:09;;;;;;;86.40;41.70;;;-1.70;99.90;;;;;;5032052;28;20413;-77
2020/12/03 01:42:38;;;;;;;76.70;40.17;;;-1.70;99.90;;;;;;5032909;28;20443;-77
2020/12/03 01:45:42;;;;;;;91.10;44.20;;;-1.70;99.90;;;;;;5033275;28;20830;-76
2020/12/03 01:48:19;;;;;;;91.73;45.40;;;-1.70;99.90;;;;;;5035127;28;20446;-75
2020/12/03 01:50:45;;;;;;;80.23;39.00;;;-1.70;99.90;;;;;;5034664;28;20496;-76
2020/12/03 01:53:13;;;;;;;75.13;41.67;;;-1.70;99.90;;;;;;5036471;28;20917;-77
2020/12/03 01:55:38;;;;;;;84.07;40.40;;;-1.70;99.90;;;;;;5035720;28;20414;-76
2020/12/03 01:58:04;;;;;;;82.77;43.60;;;-1.70;99.90;;;;;;5034519;28;20430;-76
2020/12/03 02:00:30;;;;;;;79.40;40.67;;;-1.70;99.90;;;;;;5034666;28;20168;-76
2020/12/03 02:02:56;;;;;;;92.37;44.93;;;-1.70;99.90;;;;;;5034512;28;20172;-75
2020/12/03 02:05:25;;;;;;;80.70;39.10;;;-1.70;99.90;;;;;;5033025;28;20175;-75
2020/12/03 02:07:51;;;;;;;84.97;38.97;;;-1.60;99.90;;;;;;5033990;28;20214;-75
2020/12/03 02:10:19;;;;;;;81.83;43.07;;;-1.60;99.90;;;;;;5034399;28;20402;-76
2020/12/03 02:12:46;;;;;;;93.63;42.43;;;-1.70;99.90;;;;;;5034654;28;20549;-77
2020/12/03 02:15:12;;;;;;;92.43;41.43;;;-1.60;99.90;;;;;;5034426;28;20521;-77
2020/12/03 02:17:39;;;;;;;86.97;40.23;;;-1.60;99.90;;;;;;5033096;28;20618;-77
2020/12/03 02:20:07;;;;;;;77.37;41.00;;;-1.60;99.90;;;;;;5034585;28;20413;-76
2020/12/03 02:22:33;;;;;;;71.87;41.97;;;-1.50;99.90;;;;;;5032980;28;20418;-75
2020/12/03 02:24:58;;;;;;;79.80;40.80;;;-1.60;99.90;;;;;;5034072;28;20410;-75
2020/12/03 02:27:24;;;;;;;84.97;41.40;;;-1.50;99.90;;;;;;5033877;28;20168;-75
2020/12/03 02:29:50;;;;;;;74.23;40.67;;;-1.50;99.90;;;;;;5033830;28;20184;-75
2020/12/03 02:32:17;;;;;;;82.53;42.00;;;-1.60;99.90;;;;;;5034343;28;20532;-76
2020/12/03 02:34:43;;;;;;;82.07;41.13;;;-1.60;99.90;;;;;;5034369;28;20405;-76
2020/12/03 02:37:09;;;;;;;89.03;42.63;;;-1.60;99.90;;;;;;5034094;28;20894;-76
2020/12/03 02:39:36;;;;;;;88.73;43.27;;;-1.60;99.90;;;;;;5035011;28;20430;-77
2020/12/03 02:42:07;;;;;;;74.23;39.10;;;-1.60;99.90;;;;;;5033725;28;20179;-75
2020/12/03 02:44:34;;;;;;;97.37;44.93;;;-1.60;99.90;;;;;;5033830;28;20406;-75
2020/12/03 02:46:59;;;;;;;73.13;41.03;;;-1.50;99.90;;;;;;5033489;28;20442;-76
2020/12/03 02:49:25;;;;;;;79.07;39.27;;;-1.50;99.90;;;;;;5033606;28;20860;-76
2020/12/03 02:51:50;;;;;;;92.10;43.60;;;-1.50;99.90;;;;;;5033611;28;20290;-75
2020/12/03 02:54:15;;;;;;;97.57;47.90;;;-1.60;99.90;;;;;;5032369;28;20632;-75
2020/12/03 02:56:41;;;;;;;87.43;39.03;;;-1.60;99.90;;;;;;5033225;28;20191;-76
2020/12/03 02:59:11;;;;;;;80.03;42.60;;;-1.70;99.90;;;;;;5033155;28;20678;-77
2020/12/03 03:01:37;;;;;;;84.93;42.10;;;-1.70;99.90;;;;;;5033697;28;20628;-77
2020/12/03 03:04:04;;;;;;;83.50;42.50;;;-1.70;99.90;;;;;;5034162;28;20434;-76
2020/12/03 03:06:39;;;;;;;86.70;45.47;;;-1.70;99.90;;;;;;5033141;28;20204;-77
2020/12/03 03:09:06;;;;;;;85.80;43.00;;;-1.80;99.90;;;;;;5033860;28;20938;-76
2020/12/03 03:11:32;;;;;;;89.37;44.77;;;-1.70;99.90;;;;;;5033043;28;20458;-77
2020/12/03 03:13:58;;;;;;;99.13;45.43;;;-1.70;99.90;;;;;;5033158;28;20871;-76
2020/12/03 03:16:24;;;;;;;87.30;47.70;;;-1.70;99.90;;;;;;5032952;28;20771;-76
2020/12/03 03:18:49;;;;;;;93.90;43.17;;;-1.70;99.90;;;;;;5032825;28;20430;-75
2020/12/03 03:21:16;;;;;;;83.67;44.63;;;-1.70;99.90;;;;;;5033015;28;20180;-75
2020/12/03 03:23:41;;;;;;;87.80;45.73;;;-1.70;99.90;;;;;;5032893;28;20183;-75
2020/12/03 03:26:06;;;;;;;80.40;46.00;;;-1.80;99.90;;;;;;5032765;28;20422;-76
2020/12/03 03:28:32;;;;;;;99.53;45.63;;;-1.80;99.90;;;;;;5032688;28;20191;-75
2020/12/03 03:30:57;;;;;;;96.03;44.53;;;-1.70;99.90;;;;;;5032714;28;20249;-76
2020/12/03 03:33:23;;;;;;;94.40;42.40;;;-1.70;99.90;;;;;;5032656;28;20540;-77
2020/12/03 03:35:49;;;;;;;87.73;45.57;;;-1.80;99.90;;;;;;5032838;28;20251;-75
2020/12/03 03:38:14;;;;;;;88.53;43.30;;;-1.80;99.90;;;;;;5032444;28;20422;-75
2020/12/03 03:40:40;;;;;;;90.00;47.20;;;-1.70;99.90;;;;;;5032491;28;20249;-74
2020/12/03 03:43:06;;;;;;;84.23;45.13;;;-1.70;99.90;;;;;;5032477;28;20579;-76
2020/12/03 03:45:32;;;;;;;92.00;46.40;;;-1.70;99.90;;;;;;5032589;28;20176;-75
2020/12/03 03:47:59;;;;;;;96.83;50.37;;;-1.70;99.90;;;;;;5032271;28;20237;-76
2020/12/03 03:50:25;;;;;;;106.20;49.60;;;-1.70;99.90;;;;;;5032330;28;20398;-75
2020/12/03 03:52:50;;;;;;;89.93;45.53;;;-1.70;99.90;;;;;;5032322;28;20758;-75
2020/12/03 03:55:16;;;;;;;86.07;45.13;;;-1.70;99.90;;;;;;5032476;28;20171;-75
2020/12/03 03:57:41;;;;;;;89.83;46.30;;;-1.60;99.90;;;;;;5032596;28;20167;-75
2020/12/03 04:00:07;;;;;;;96.13;45.00;;;-1.60;99.90;;;;;;5032385;28;20203;-75
2020/12/03 04:02:33;;;;;;;96.03;43.20;;;-1.60;99.90;;;;;;5032108;28;20172;-74
2020/12/03 04:04:58;;;;;;;93.23;46.27;;;-1.60;99.90;;;;;;5032242;28;20167;-74
2020/12/03 04:07:24;;;;;;;93.63;48.03;;;-1.60;99.90;;;;;;5032086;28;20172;-75
2020/12/03 04:09:49;;;;;;;101.83;48.50;;;-1.60;99.90;;;;;;5031066;28;20213;-75
2020/12/03 04:12:14;;;;;;;102.13;46.60;;;-1.60;99.90;;;;;;5032020;28;20218;-75
2020/12/03 04:14:41;;;;;;;99.93;45.23;;;-1.60;99.90;;;;;;5032084;28;20171;-75
2020/12/03 04:17:06;;;;;;;95.20;47.80;;;-1.60;99.90;;;;;;5031295;28;20176;-75
2020/12/03 04:19:32;;;;;;;94.40;47.93;;;-1.60;99.90;;;;;;5030580;28;20434;-76
2020/12/03 04:21:57;;;;;;;96.60;47.97;;;-1.60;99.90;;;;;;5032061;28;20206;-77
2020/12/03 04:24:23;;;;;;;102.30;46.97;;;-1.60;99.90;;;;;;5030543;28;20195;-74
2020/12/03 04:26:48;;;;;;;97.03;49.10;;;-1.60;99.90;;;;;;5031720;28;20225;-74
2020/12/03 04:29:16;;;;;;;109.00;48.57;;;-1.60;99.90;;;;;;5031775;28;20285;-75
2020/12/03 04:31:43;;;;;;;100.30;47.93;;;-1.50;99.90;;;;;;5031684;28;20595;-74
2020/12/03 04:34:09;;;;;;;101.80;49.00;;;-1.60;99.90;;;;;;5031702;28;20469;-75
2020/12/03 04:36:35;;;;;;;106.90;51.33;;;-1.50;99.90;;;;;;5031653;28;20817;-75
2020/12/03 04:39:00;;;;;;;127.03;53.80;;;-1.50;99.90;;;;;;5031536;28;20461;-75
2020/12/03 04:41:26;;;;;;;108.40;48.87;;;-1.60;99.90;;;;;;5031747;28;20178;-75
2020/12/03 04:44:01;;;;;;;99.63;45.23;;;-1.50;99.90;;;;;;5031649;28;20206;-74
2020/12/03 04:46:36;;;;;;;97.13;47.20;;;-1.50;99.90;;;;;;5031593;28;20255;-75
2020/12/03 04:49:28;;;;;;;104.27;50.17;;;-1.40;99.90;;;;;;5030413;28;20441;-75
2020/12/03 04:52:14;;;;;;;109.27;50.33;;;-1.50;99.90;;;;;;5026036;28;20549;-75
2020/12/03 04:55:17;;;;;;;99.07;46.30;;;-1.40;99.90;;;;;;5012225;28;20391;-75
2020/12/03 04:57:48;;;;;;;90.40;45.20;;;-1.40;99.90;;;;;;5010961;28;20858;-75
2020/12/03 05:00:16;;;;;;;102.20;49.10;;;-1.40;99.90;;;;;;5011064;28;20418;-75
2020/12/03 05:03:01;;;;;;;100.23;45.63;;;-1.40;99.90;;;;;;5012437;28;20946;-74
2020/12/03 05:05:46;;;;;;;86.70;45.97;;;-1.30;99.90;;;;;;5011880;28;20811;-76
2020/12/03 05:08:23;;;;;;;89.87;46.60;;;-1.30;99.90;;;;;;5011410;28;20447;-76
2020/12/03 05:10:48;;;;;;;93.20;46.00;;;-1.30;99.90;;;;;;5011922;28;20454;-76
2020/12/03 05:13:20;;;;;;;82.97;44.40;;;-1.30;99.90;;;;;;5012108;28;20465;-76
2020/12/03 05:15:50;;;;;;;97.93;48.90;;;-1.30;99.90;;;;;;5011849;28;20172;-75
2020/12/03 05:18:59;;;;;;;88.47;44.20;;;-1.30;99.90;;;;;;5011482;28;20834;-75
2020/12/03 05:21:28;;;;;;;101.53;46.40;;;-1.30;99.90;;;;;;5014650;28;20406;-75
2020/12/03 05:23:54;;;;;;;100.80;45.50;;;-1.30;99.90;;;;;;5015318;28;20450;-75
2020/12/03 05:26:31;;;;;;;102.83;47.00;;;-1.20;99.90;;;;;;5023291;28;20450;-76
2020/12/03 05:29:00;;;;;;;103.47;47.47;;;-1.20;99.90;;;;;;5034877;28;20440;-76
2020/12/03 05:31:45;;;;;;;77.67;41.17;;;-1.20;99.90;;;;;;5033792;28;20890;-75
2020/12/03 05:34:16;;;;;;;96.07;43.50;;;-1.20;99.90;;;;;;5035365;28;20489;-76
2020/12/03 05:36:59;;;;;;;101.47;47.00;;;-1.20;99.90;;;;;;5034970;28;20402;-76
2020/12/03 05:39:42;;;;;;;103.70;45.10;;;-1.20;99.90;;;;;;5036209;28;21010;-76
2020/12/03 05:42:12;;;;;;;94.77;44.77;;;-1.10;99.90;;;;;;5034941;28;20406;-75
2020/12/03 05:44:52;;;;;;;88.33;43.97;;;-1.10;99.90;;;;;;5034668;28;20426;-76
2020/12/03 05:47:24;;;;;;;90.50;44.07;;;-1.10;99.90;;;;;;5035371;28;20410;-76
2020/12/03 05:49:55;;;;;;;84.97;41.50;;;-1.10;99.90;;;;;;5035131;28;20485;-75
2020/12/03 05:52:23;;;;;;;79.23;41.47;;;-1.10;99.90;;;;;;5034740;28;20465;-76
2020/12/03 05:54:56;;;;;;;92.70;43.30;;;-1.10;99.90;;;;;;5033526;28;20425;-76
2020/12/03 05:57:25;;;;;;;98.67;45.37;;;-1.10;99.90;;;;;;5033559;28;20922;-76
2020/12/03 05:59:50;;;;;;;82.93;46.97;;;-1.00;99.90;;;;;;5034884;28;20533;-75
2020/12/03 06:02:39;;;;;;;96.23;44.17;;;-1.00;99.90;;;;;;5034924;28;20485;-75
2020/12/03 06:05:45;;;;;;;94.63;45.47;;;-1.00;99.90;;;;;;5034346;28;20172;-74
2020/12/03 06:08:44;;;;;;;95.10;43.90;;;-1.10;99.90;;;;;;5034248;28;20980;-77
2020/12/03 06:11:29;;;;;;;91.23;42.50;;;-1.00;99.90;;;;;;5034678;28;20453;-75
2020/12/03 06:14:28;;;;;;;97.57;46.27;;;-1.00;99.90;;;;;;5034600;28;20453;-75
2020/12/03 06:17:16;;;;;;;98.40;45.50;;;-1.10;99.90;;;;;;5034410;28;20410;-76
2020/12/03 06:20:00;;;;;;;98.13;44.63;;;-1.00;99.90;;;;;;5034734;28;20424;-76
2020/12/03 06:22:37;;;;;;;94.70;43.57;;;-1.00;99.90;;;;;;5034360;28;20887;-74
2020/12/03 06:25:24;;;;;;;92.80;43.07;;;-1.00;99.90;;;;;;5034159;28;20410;-75
2020/12/03 06:28:05;;;;;;;89.63;43.43;;;-1.00;99.90;;;;;;5033783;28;20417;-75
2020/12/03 06:30:39;;;;;;;92.77;41.60;;;-1.00;99.90;;;;;;5032672;28;20425;-75
2020/12/03 06:33:39;;;;;;;79.83;42.47;;;-1.00;99.90;;;;;;5032887;28;20397;-75
2020/12/03 06:36:13;;;;;;;99.27;42.20;;;-1.00;99.90;;;;;;5033698;28;20948;-76
2020/12/03 06:39:03;;;;;;;80.50;41.37;;;-0.90;99.90;;;;;;5033972;28;20449;-75
2020/12/03 06:41:50;;;;;;;85.70;41.27;;;-1.00;99.90;;;;;;5033837;28;20411;-75
2020/12/03 06:44:28;;;;;;;73.60;41.10;;;-1.00;99.90;;;;;;5032531;28;20417;-75
2020/12/03 06:47:01;;;;;;;100.80;43.00;;;-1.00;99.90;;;;;;5034003;28;20900;-75
2020/12/03 06:49:49;;;;;;;84.53;45.20;;;-0.90;99.90;;;;;;5033739;28;20525;-76
2020/12/03 06:52:56;;;;;;;96.50;41.57;;;-0.80;99.90;;;;;;5033590;28;20449;-76
2020/12/03 06:55:45;;;;;;;93.00;41.93;;;-0.90;99.90;;;;;;5032784;28;20414;-76
2020/12/03 06:58:30;;;;;;;74.30;39.50;;;-0.80;99.90;;;;;;5032037;28;20422;-76
2020/12/03 07:01:33;;;;;;;97.00;43.40;;;-0.80;99.90;;;;;;5033482;28;20429;-76
2020/12/03 07:04:17;;;;;;;79.67;41.03;;;-0.80;99.90;;;;;;5033335;28;20406;-76
2020/12/03 07:07:07;;;;;;;85.40;44.43;;;-0.80;99.90;;;;;;5033369;28;20773;-76
2020/12/03 07:10:05;;;;;;;90.00;43.53;;;-0.80;99.90;;;;;;5033205;28;20503;-75
2020/12/03 07:12:52;;;;;;;80.07;40.10;;;-0.80;99.90;;;;;;5033222;28;20548;-76
2020/12/03 07:15:30;;;;;;;89.23;43.60;;;-0.80;99.90;;;;;;5033158;28;20428;-73
2020/12/03 07:18:15;;;;;;;79.80;40.20;;;-0.70;99.90;;;;;;5032903;28;21018;-74
2020/12/03 07:21:06;;;;;;;90.13;42.67;;;-0.70;99.90;;;;;;5033743;28;20412;-78
2020/12/03 07:23:53;;;;;;;86.03;43.20;;;-0.70;99.90;;;;;;5033079;28;20403;-75
2020/12/03 07:26:43;;;;;;;88.23;42.67;;;-0.80;99.90;;;;;;5032774;28;20403;-75
2020/12/03 07:29:46;;;;;;;85.67;40.70;;;-0.70;99.90;;;;;;5032702;28;20429;-75
2020/12/03 07:32:36;;;;;;;92.10;43.83;;;-0.70;99.90;;;;;;5032108;28;20553;-74
2020/12/03 07:35:18;;;;;;;83.00;43.13;;;-0.70;99.90;;;;;;5032670;28;20497;-75
2020/12/03 07:37:53;;;;;;;86.17;41.67;;;-0.70;99.90;;;;;;5032487;28;20426;-75
2020/12/03 07:40:19;;;;;;;79.73;40.10;;;-0.70;99.90;;;;;;5032561;28;20950;-75
2020/12/03 07:42:46;;;;;;;91.27;41.40;;;-0.70;99.90;;;;;;5032495;28;20477;-75
2020/12/03 07:45:43;;;;;;;85.50;40.03;;;-0.70;99.90;;;;;;5032449;28;20171;-76
2020/12/03 07:48:41;;;;;;;87.63;44.07;;;-0.70;99.90;;;;;;5032412;28;20425;-75
2020/12/03 07:51:10;;;;;;;86.10;42.80;;;-0.70;99.90;;;;;;5032301;28;20869;-75
2020/12/03 07:53:36;;;;;;;81.13;44.97;;;-0.70;99.90;;;;;;5032215;28;20979;-75
2020/12/03 07:56:31;;;;;;;77.67;43.53;;;-0.60;99.90;;;;;;5032302;28;20460;-75
2020/12/03 07:59:22;;;;;;;82.60;39.90;;;-0.60;99.90;;;;;;5032232;28;20494;-76
2020/12/03 08:01:48;;;;;;;85.57;39.57;;;-0.60;99.90;;;;;;5032275;28;20421;-75
2020/12/03 08:04:17;;;;;;;82.57;42.77;;;-0.60;99.90;;;;;;5032145;28;20456;-75
2020/12/03 08:07:09;;;;;;;84.83;41.80;;;-0.60;99.90;;;;;;5032429;28;20463;-75
2020/12/03 08:09:42;;;;;;;68.73;37.63;;;-0.60;99.90;;;;;;5031804;28;20830;-75
2020/12/03 08:12:20;;;;;;;73.53;38.07;;;-0.50;99.90;;;;;;5032006;28;20442;-75
2020/12/03 08:14:59;;;;;;;86.47;40.23;;;-0.40;99.90;;;;;;5031965;28;20445;-75
2020/12/03 08:17:25;;;;;;;63.33;36.30;;;-0.30;99.90;;;;;;5031965;28;20851;-75
2020/12/03 08:20:02;;;;;;;74.77;37.70;;;-0.30;99.90;;;;;;5031857;28;20421;-75
2020/12/03 08:22:42;;;;;;;69.43;39.37;;;-0.10;99.90;;;;;;5031931;28;20167;-76
2020/12/03 08:25:11;;;;;;;67.47;35.47;;;-0.10;99.90;;;;;;5032057;28;20933;-75
2020/12/03 08:27:37;;;;;;;80.07;38.00;;;-0.20;99.90;;;;;;5032317;28;20410;-73
2020/12/03 08:30:04;;;;;;;74.27;39.13;;;-0.10;99.90;;;;;;5032199;28;20445;-75
2020/12/03 08:33:03;;;;;;;70.33;38.20;;;-0.10;99.90;;;;;;5028198;28;20187;-76
2020/12/03 08:35:28;;;;;;;66.20;35.60;;;-0.10;99.90;;;;;;5014470;28;20826;-74
2020/12/03 08:37:55;;;;;;;71.17;37.90;;;-0.10;99.90;;;;;;5033368;28;20402;-73
2020/12/03 08:40:20;;;;;;;68.07;37.90;;;0.00;99.90;;;;;;5032116;28;20625;-76
2020/12/03 08:42:46;;;;;;;69.70;35.70;;;0.00;99.90;;;;;;5032049;28;20477;-75
2020/12/03 08:45:12;;;;;;;76.47;39.30;;;0.10;99.90;;;;;;5031750;28;20639;-76
2020/12/03 08:47:50;;;;;;;74.27;36.70;;;0.10;99.90;;;;;;5031772;28;20436;-75
2020/12/03 08:50:16;;;;;;;67.47;37.30;;;0.20;99.90;;;;;;5012968;28;20176;-75
2020/12/03 08:52:42;;;;;;;66.33;36.90;;;0.20;99.90;;;;;;5012051;28;20554;-75
2020/12/03 08:55:09;;;;;;;76.00;34.53;;;0.10;99.90;;;;;;5012816;28;20411;-76
2020/12/03 08:57:37;;;;;;;67.43;34.30;;;0.20;99.90;;;;;;5015716;28;20423;-76
2020/12/03 09:00:05;;;;;;;71.30;37.97;;;0.10;99.90;;;;;;5015833;28;20407;-75
2020/12/03 09:02:31;;;;;;;62.03;34.70;;;0.10;99.90;;;;;;5014518;28;20435;-75
2020/12/03 09:04:59;;;;;;;74.90;39.13;;;0.10;99.90;;;;;;5016748;28;20414;-75
2020/12/03 09:07:29;;;;;;;71.77;36.30;;;0.10;99.90;;;;;;5034296;28;20831;-75
2020/12/03 09:09:58;;;;;;;65.90;34.30;;;0.10;99.90;;;;;;5035338;28;20462;-75
2020/12/03 09:12:28;;;;;;;61.67;34.87;;;0.20;99.90;;;;;;5035373;28;20453;-76
2020/12/03 09:14:55;;;;;;;68.87;34.83;;;0.20;99.90;;;;;;5035235;28;20402;-76
2020/12/03 09:17:23;;;;;;;67.83;32.10;;;0.10;99.90;;;;;;5035225;28;20472;-75
2020/12/03 09:19:50;;;;;;;72.50;35.07;;;0.10;99.90;;;;;;5035409;28;20426;-76
2020/12/03 09:22:17;;;;;;;63.20;34.27;;;0.10;99.90;;;;;;5035460;28;20410;-76
2020/12/03 09:24:48;;;;;;;64.90;35.00;;;0.20;99.90;;;;;;5035442;28;20496;-75
2020/12/03 09:27:15;;;;;;;69.80;36.13;;;0.20;99.90;;;;;;5035217;28;20416;-75
2020/12/03 09:29:47;;;;;;;69.07;34.57;;;0.20;99.90;;;;;;5035098;28;20432;-75
2020/12/03 09:32:17;;;;;;;65.80;34.80;;;0.20;99.90;;;;;;5035081;28;20457;-75
2020/12/03 09:34:44;;;;;;;69.13;37.30;;;0.20;99.90;;;;;;5035241;28;20476;-75
2020/12/03 09:37:10;;;;;;;59.57;34.63;;;0.20;99.90;;;;;;5034120;28;20879;-75
2020/12/03 09:39:37;;;;;;;71.07;33.57;;;0.20;99.90;;;;;;5033983;28;20452;-75
2020/12/03 09:42:05;;;;;;;60.37;32.20;;;0.20;99.90;;;;;;5035058;28;20543;-76
2020/12/03 09:44:35;;;;;;;63.30;31.87;;;0.30;99.90;;;;;;5035054;28;20436;-76
2020/12/03 09:47:12;;;;;;;69.77;33.13;;;0.30;99.90;;;;;;5034935;28;20545;-77
2020/12/03 09:49:42;;;;;;;61.13;32.17;;;0.30;99.90;;;;;;5035012;28;20445;-75
2020/12/03 09:52:10;;;;;;;52.00;29.87;;;0.40;99.90;;;;;;5035372;28;20511;-76
2020/12/03 09:54:40;;;;;;;57.70;33.10;;;0.40;99.90;;;;;;5035198;28;20406;-75
2020/12/03 09:57:08;;;;;;;58.97;32.07;;;0.40;99.90;;;;;;5035041;28;20771;-76
2020/12/03 09:59:36;;;;;;;54.33;30.77;;;0.40;99.90;;;;;;5035162;28;20434;-76
2020/12/03 10:02:12;;;;;;;59.87;31.57;;;0.50;99.90;;;;;;5034609;28;20452;-76
2020/12/03 10:05:10;;;;;;;48.70;30.50;;;0.70;99.90;;;;;;5034589;28;20406;-75
2020/12/03 10:07:56;;;;;;;62.37;32.73;;;0.70;99.90;;;;;;5033057;28;20429;-74
2020/12/03 10:10:41;;;;;;;51.47;32.00;;;0.80;99.90;;;;;;5034526;28;20449;-75
2020/12/03 10:13:06;;;;;;;52.43;30.30;;;0.80;99.90;;;;;;5035023;28;20851;-75
2020/12/03 10:15:57;;;;;;;53.87;31.57;;;0.90;99.90;;;;;;5034263;28;20500;-75
2020/12/03 10:18:43;;;;;;;59.00;31.33;;;0.90;99.90;;;;;;5034317;28;20191;-75
2020/12/03 10:21:09;;;;;;;48.30;28.03;;;0.90;99.90;;;;;;5034267;28;20402;-76
2020/12/03 10:23:50;;;;;;;47.17;27.40;;;0.90;99.90;;;;;;5034195;28;20411;-75
2020/12/03 10:26:54;;;;;;;57.87;28.20;;;0.90;99.90;;;;;;5034283;28;20764;-79
2020/12/03 10:29:42;;;;;;;49.60;29.33;;;0.90;99.90;;;;;;5035248;28;20553;-74
2020/12/03 10:32:18;;;;;;;54.17;25.73;;;1.10;99.90;;;;;;5034752;28;20454;-80
2020/12/03 10:34:46;;;;;;;47.57;26.43;;;1.10;99.90;;;;;;5034344;28;20926;-74
2020/12/03 10:37:37;;;;;;;50.10;30.53;;;1.10;99.90;;;;;;5034995;28;20406;-73
2020/12/03 10:40:20;;;;;;;54.60;28.67;;;1.20;99.90;;;;;;5036289;28;20818;-76
2020/12/03 10:43:07;;;;;;;49.63;29.53;;;1.20;99.90;;;;;;5034640;28;20413;-73
2020/12/03 10:45:38;;;;;;;51.43;28.37;;;1.10;99.90;;;;;;5034384;28;20422;-78
2020/12/03 10:48:11;;;;;;;55.27;29.33;;;1.20;99.90;;;;;;5033851;28;20436;-74
2020/12/03 10:51:19;;;;;;;49.00;25.97;;;1.10;99.90;;;;;;5034525;28;20402;-79
2020/12/03 10:53:47;;;;;;;50.37;28.33;;;1.10;99.90;;;;;;5030520;28;20422;-73
2020/12/03 10:56:15;;;;;;;44.93;28.33;;;1.10;99.90;;;;;;5033384;28;20926;-74
2020/12/03 10:59:17;;;;;;;52.13;28.20;;;1.10;99.90;;;;;;5033593;28;20519;-74
2020/12/03 11:01:43;;;;;;;51.70;28.60;;;1.20;99.90;;;;;;5029565;28;20483;-74
2020/12/03 11:04:10;;;;;;;46.33;26.80;;;1.20;99.90;;;;;;5033325;28;20406;-75
2020/12/03 11:06:36;;;;;;;60.10;32.20;;;1.10;99.90;;;;;;5033556;28;20775;-74
2020/12/03 11:09:04;;;;;;;51.77;29.90;;;1.10;99.90;;;;;;5033231;28;20446;-74
2020/12/03 11:11:33;;;;;;;48.47;28.47;;;1.00;99.90;;;;;;5033216;28;20450;-74
2020/12/03 11:13:59;;;;;;;49.67;28.93;;;1.00;99.90;;;;;;5033535;28;20434;-74
2020/12/03 11:16:32;;;;;;;53.87;29.70;;;0.90;99.90;;;;;;5033124;28;20440;-74
2020/12/03 11:19:00;;;;;;;53.73;28.43;;;1.00;99.90;;;;;;5032932;28;20923;-74
2020/12/03 11:21:32;;;;;;;45.20;25.77;;;1.10;99.90;;;;;;5013505;28;20758;-74
2020/12/03 11:24:05;;;;;;;46.80;27.20;;;1.00;99.90;;;;;;5013477;28;20417;-74
2020/12/03 11:26:33;;;;;;;44.80;26.43;;;1.10;99.90;;;;;;5013279;28;20415;-74
2020/12/03 11:29:13;;;;;;;48.23;28.77;;;1.10;99.90;;;;;;5013249;28;20431;-75
2020/12/03 11:31:39;;;;;;;47.33;28.70;;;1.20;99.90;;;;;;5013459;28;20451;-74
2020/12/03 11:34:06;;;;;;;45.20;25.50;;;1.20;99.90;;;;;;5013376;28;20450;-75
2020/12/03 11:36:37;;;;;;;50.20;25.80;;;1.20;99.90;;;;;;5013189;28;20403;-75
2020/12/03 11:39:04;;;;;;;47.47;27.03;;;2.00;99.90;;;;;;5013230;28;20422;-75
2020/12/03 11:49:23;;;;;;;46.60;26.10;;;1.70;99.90;;;;;;5032821;28;20429;-75
2020/12/03 11:51:49;;;;;;;44.07;25.63;;;1.70;99.90;;;;;;5032681;28;20823;-74
2020/12/03 11:54:14;;;;;;;52.87;30.77;;;1.60;99.90;;;;;;5032633;28;20406;-74
2020/12/03 11:56:40;;;;;;;45.00;27.00;;;1.60;99.90;;;;;;5032534;28;20628;-75
2020/12/03 11:59:19;;;;;;;47.30;26.30;;;1.30;99.90;;;;;;5032351;28;20231;-74
2020/12/03 12:01:55;;;;;;;45.20;26.10;;;1.40;99.90;;;;;;5032473;28;20198;-74
2020/12/03 12:04:31;;;;;;;46.83;27.00;;;1.30;99.90;;;;;;5032463;28;20402;-74
2020/12/03 12:07:09;;;;;;;43.50;24.37;;;1.30;99.90;;;;;;5032413;28;20409;-74
2020/12/03 12:09:47;;;;;;;36.80;22.47;;;1.30;99.90;;;;;;5032107;28;20442;-75
2020/12/03 12:12:14;;;;;;;50.33;25.60;;;1.40;99.90;;;;;;5032291;28;20953;-74
2020/12/03 12:14:39;;;;;;;46.90;26.50;;;1.30;99.90;;;;;;5032394;28;20405;-74
2020/12/03 12:17:05;;;;;;;43.13;25.93;;;1.40;99.90;;;;;;5032377;28;20414;-75
2020/12/03 12:19:32;;;;;;;41.33;25.30;;;1.40;99.90;;;;;;5031989;28;20196;-75
2020/12/03 12:21:58;;;;;;;41.43;25.83;;;1.30;99.90;;;;;;5031984;28;20413;-74
2020/12/03 12:24:23;;;;;;;35.63;24.03;;;1.30;99.90;;;;;;5032066;28;20489;-74
2020/12/03 12:26:49;;;;;;;43.23;25.97;;;1.40;99.90;;;;;;5031864;28;20424;-75
2020/12/03 12:29:15;;;;;;;46.30;24.50;;;1.40;99.90;;;;;;5031558;28;20207;-74
2020/12/03 12:31:40;;;;;;;43.37;23.50;;;1.40;99.90;;;;;;5031590;28;20469;-74
2020/12/03 12:34:06;;;;;;;48.20;25.43;;;1.50;99.90;;;;;;5031893;28;20194;-74
2020/12/03 12:36:31;;;;;;;43.93;24.00;;;1.50;99.90;;;;;;5031830;28;20198;-75
2020/12/03 12:38:57;;;;;;;46.30;25.17;;;1.60;99.90;;;;;;5032165;28;20192;-74
2020/12/03 12:41:22;;;;;;;43.70;24.83;;;1.60;99.90;;;;;;5031672;28;20219;-74
2020/12/03 12:43:48;;;;;;;38.73;23.90;;;1.60;99.90;;;;;;5032050;28;20445;-74
2020/12/03 12:46:19;;;;;;;48.20;26.70;;;1.50;99.90;;;;;;5031596;28;20227;-74
2020/12/03 12:48:45;;;;;;;38.13;23.50;;;1.50;99.90;;;;;;5031908;28;20673;-74
2020/12/03 12:51:10;;;;;;;39.83;23.37;;;1.50;99.90;;;;;;5032088;28;20506;-74
2020/12/03 12:53:36;;;;;;;38.53;25.47;;;1.60;99.90;;;;;;5031698;28;20218;-74
2020/12/03 12:56:01;;;;;;;38.10;23.60;;;1.60;99.90;;;;;;5030480;28;20267;-75
2020/12/03 12:58:27;;;;;;;40.17;23.47;;;1.60;99.90;;;;;;5031890;28;20264;-74
2020/12/03 13:00:52;;;;;;;35.07;22.23;;;1.50;99.90;;;;;;5031785;28;20639;-74
2020/12/03 13:03:18;;;;;;;38.27;22.73;;;1.50;99.90;;;;;;5031779;28;20176;-74
2020/12/03 13:05:43;;;;;;;39.77;24.43;;;1.50;99.90;;;;;;5032062;28;20233;-74